Time;durP1;ratioP1;P1;durP2;ratioP2;P2;SDS_P1;SDS_P2;PMS_P1;PMS_P2;Temp;Humidity;BMP_temperature;BMP_pressure;BME280_temperature;BME280_humidity;BME280_pressure;Samples;Min_cycle;Max_cycle;Signal;HPM_P1;HPM_P2
2022/02/13 00:00:15;;;;;;;10.18;5.78;;;3.30;99.90;;;;;;5083591;28;20044;-66
2022/02/13 00:02:42;;;;;;;9.30;5.45;;;3.20;99.90;;;;;;5065760;28;20052;-65
2022/02/13 00:05:09;;;;;;;14.73;5.70;;;3.10;99.90;;;;;;5067174;28;20044;-65
2022/02/13 00:07:35;;;;;;;11.32;5.75;;;3.10;99.90;;;;;;5083155;28;20051;-65
2022/02/13 00:10:04;;;;;;;11.23;6.38;;;3.20;99.90;;;;;;5069936;28;20412;-66
2022/02/13 00:12:30;;;;;;;10.63;5.45;;;3.30;99.90;;;;;;5066714;28;20049;-66
2022/02/13 00:14:56;;;;;;;13.57;6.15;;;3.10;99.90;;;;;;5069216;28;20058;-65
2022/02/13 00:17:22;;;;;;;11.27;5.43;;;3.10;99.90;;;;;;5066921;28;20101;-65
2022/02/13 00:19:48;;;;;;;9.18;5.28;;;3.10;99.90;;;;;;5082977;28;20049;-66
2022/02/13 00:22:15;;;;;;;11.13;5.18;;;3.00;99.90;;;;;;5065291;28;20063;-65
2022/02/13 00:24:41;;;;;;;9.57;5.88;;;3.00;99.90;;;;;;5066709;28;20107;-65
2022/02/13 00:27:07;;;;;;;13.05;6.50;;;3.00;99.90;;;;;;5070255;28;20075;-66
2022/02/13 00:29:32;;;;;;;10.90;5.88;;;2.90;99.90;;;;;;5086613;28;20088;-65
2022/02/13 00:31:58;;;;;;;9.35;5.47;;;3.00;99.90;;;;;;5068885;28;20052;-66
2022/02/13 00:34:24;;;;;;;11.02;5.65;;;2.90;99.90;;;;;;5068661;28;20210;-66
2022/02/13 00:36:49;;;;;;;8.35;5.63;;;2.80;99.90;;;;;;5070604;28;20135;-66
2022/02/13 00:39:15;;;;;;;10.30;5.68;;;2.90;99.90;;;;;;5046805;28;20118;-66
2022/02/13 00:41:41;;;;;;;11.27;5.72;;;2.80;99.90;;;;;;5082045;28;20143;-66
2022/02/13 00:44:07;;;;;;;9.55;6.35;;;2.90;99.90;;;;;;5049037;28;20091;-66
2022/02/13 00:46:33;;;;;;;13.40;6.40;;;2.80;99.90;;;;;;5084131;28;20100;-66
2022/02/13 00:49:01;;;;;;;10.57;5.68;;;2.70;99.90;;;;;;5082927;28;20148;-66
2022/02/13 00:51:27;;;;;;;11.13;5.88;;;2.80;99.90;;;;;;5066635;28;20041;-66
2022/02/13 00:53:53;;;;;;;10.48;5.70;;;2.70;99.90;;;;;;5086900;28;20105;-66
2022/02/13 00:56:20;;;;;;;12.77;5.88;;;2.70;99.90;;;;;;5051067;28;20041;-66
2022/02/13 00:58:46;;;;;;;10.80;5.93;;;2.70;99.90;;;;;;5048033;28;20092;-66
2022/02/13 01:01:13;;;;;;;11.27;5.85;;;2.70;99.90;;;;;;5066669;28;20041;-66
2022/02/13 01:03:39;;;;;;;10.75;6.95;;;2.70;99.90;;;;;;5066230;28;20129;-66
2022/02/13 01:06:05;;;;;;;11.93;6.25;;;2.60;99.90;;;;;;5050386;28;20041;-66
2022/02/13 01:08:31;;;;;;;13.05;6.32;;;2.70;99.90;;;;;;5081705;28;20071;-66
2022/02/13 01:10:57;;;;;;;9.45;6.43;;;2.60;99.90;;;;;;5085425;28;20045;-65
2022/02/13 01:13:23;;;;;;;12.73;6.40;;;2.70;99.90;;;;;;5049533;28;20060;-65
2022/02/13 01:15:49;;;;;;;10.73;5.43;;;2.70;99.90;;;;;;5081988;28;20053;-66
2022/02/13 01:18:15;;;;;;;11.55;5.63;;;2.60;99.90;;;;;;5048904;28;20141;-66
2022/02/13 01:20:41;;;;;;;11.07;6.03;;;2.60;99.90;;;;;;5081314;28;20084;-65
2022/02/13 01:23:07;;;;;;;11.35;6.35;;;2.60;99.90;;;;;;5048548;28;21087;-66
2022/02/13 01:25:33;;;;;;;10.18;6.40;;;2.50;99.90;;;;;;5081630;28;20056;-66
2022/02/13 01:27:59;;;;;;;10.43;5.70;;;2.60;99.90;;;;;;5047815;28;20048;-66
2022/02/13 01:30:26;;;;;;;13.15;6.95;;;2.70;99.90;;;;;;5068132;28;20052;-65
2022/02/13 01:32:51;;;;;;;10.23;6.18;;;2.60;99.90;;;;;;5068980;28;20049;-66
2022/02/13 01:35:17;;;;;;;10.65;5.43;;;2.60;99.90;;;;;;5051533;28;20047;-66
2022/02/13 01:37:43;;;;;;;9.27;5.43;;;2.70;99.90;;;;;;5053960;28;20095;-66
2022/02/13 01:40:09;;;;;;;11.05;5.45;;;2.60;99.90;;;;;;5080796;28;20053;-65
2022/02/13 01:42:35;;;;;;;9.48;5.05;;;2.70;99.90;;;;;;5049102;28;20057;-65
2022/02/13 01:45:01;;;;;;;9.80;5.60;;;2.60;99.90;;;;;;5035337;28;20155;-65
2022/02/13 01:47:29;;;;;;;11.52;6.90;;;2.60;99.90;;;;;;5045964;28;20044;-65
2022/02/13 01:49:55;;;;;;;8.95;5.10;;;2.60;99.90;;;;;;5048900;28;20064;-65
2022/02/13 01:52:21;;;;;;;8.07;5.50;;;2.60;99.90;;;;;;5031648;28;20049;-65
2022/02/13 01:54:47;;;;;;;12.88;6.43;;;2.70;99.90;;;;;;5031446;28;20091;-65
2022/02/13 01:57:13;;;;;;;11.60;6.38;;;2.50;99.90;;;;;;5065223;28;20040;-65
2022/02/13 01:59:40;;;;;;;9.30;6.13;;;2.50;99.90;;;;;;5048304;28;20120;-65
2022/02/13 02:02:06;;;;;;;13.25;6.70;;;2.50;99.90;;;;;;5047692;28;20052;-65
2022/02/13 02:04:32;;;;;;;11.57;6.30;;;2.50;99.90;;;;;;5046947;28;20079;-65
2022/02/13 02:06:58;;;;;;;10.55;6.78;;;2.40;99.90;;;;;;5048295;28;20477;-65
2022/02/13 02:09:25;;;;;;;9.60;5.75;;;2.40;99.90;;;;;;5048236;28;20098;-65
2022/02/13 02:11:51;;;;;;;10.68;6.25;;;2.40;99.90;;;;;;5047033;28;20045;-65
2022/02/13 02:14:17;;;;;;;10.48;7.13;;;2.30;99.90;;;;;;5043705;28;20052;-65
2022/02/13 02:16:43;;;;;;;14.02;6.35;;;2.30;99.90;;;;;;5043937;28;20045;-65
2022/02/13 02:19:10;;;;;;;9.13;6.53;;;2.40;99.90;;;;;;5080972;28;20053;-65
2022/02/13 02:21:45;;;;;;;14.27;6.10;;;2.40;99.90;;;;;;5050854;28;20052;-65
2022/02/13 02:24:13;;;;;;;11.75;6.15;;;2.50;99.90;;;;;;5018567;28;20075;-65
2022/02/13 02:26:38;;;;;;;11.30;6.75;;;2.50;99.90;;;;;;5044357;28;20124;-65
2022/02/13 02:29:04;;;;;;;14.50;7.07;;;2.50;99.90;;;;;;5041435;28;20122;-66
2022/02/13 02:31:30;;;;;;;14.85;6.97;;;2.40;99.90;;;;;;5044321;28;20077;-65
2022/02/13 02:33:56;;;;;;;10.48;6.20;;;2.30;99.90;;;;;;5044382;28;20083;-65
2022/02/13 02:36:21;;;;;;;13.75;5.78;;;2.40;99.90;;;;;;5072699;28;20103;-65
2022/02/13 02:38:48;;;;;;;13.77;6.43;;;2.40;99.90;;;;;;5053223;28;20105;-65
2022/02/13 02:41:15;;;;;;;11.50;6.25;;;2.40;99.90;;;;;;5052757;28;20087;-65
2022/02/13 02:43:41;;;;;;;10.45;6.13;;;2.30;99.90;;;;;;5044816;28;20057;-65
2022/02/13 02:46:07;;;;;;;10.68;5.95;;;2.30;99.90;;;;;;5047459;28;20049;-65
2022/02/13 02:48:33;;;;;;;13.23;6.63;;;2.30;99.90;;;;;;5045926;28;20049;-65
2022/02/13 02:51:00;;;;;;;13.25;7.68;;;2.20;99.90;;;;;;5069000;28;20083;-65
2022/02/13 02:53:27;;;;;;;11.25;6.95;;;2.10;99.90;;;;;;5042008;28;20128;-65
2022/02/13 02:55:53;;;;;;;14.15;7.53;;;2.20;99.90;;;;;;5049555;28;20055;-65
2022/02/13 02:58:19;;;;;;;11.45;6.60;;;2.30;99.90;;;;;;5067449;28;20044;-65
2022/02/13 03:00:44;;;;;;;10.73;6.55;;;2.10;99.90;;;;;;5048277;28;20056;-65
2022/02/13 03:03:10;;;;;;;10.30;6.70;;;2.10;99.90;;;;;;5068372;28;20106;-65
2022/02/13 03:05:36;;;;;;;11.88;6.35;;;2.00;99.90;;;;;;5067045;28;20052;-65
2022/02/13 03:08:02;;;;;;;9.63;6.75;;;1.90;99.90;;;;;;5047442;28;20078;-65
2022/02/13 03:10:28;;;;;;;9.50;6.15;;;1.90;99.90;;;;;;5052054;28;20045;-65
2022/02/13 03:12:54;;;;;;;12.75;6.75;;;2.00;99.90;;;;;;5042916;28;20048;-65
2022/02/13 03:15:20;;;;;;;10.10;6.78;;;2.00;99.90;;;;;;5067386;28;20086;-65
2022/02/13 03:17:45;;;;;;;11.70;6.70;;;2.00;99.90;;;;;;5053897;28;20048;-66
2022/02/13 03:20:11;;;;;;;11.98;6.90;;;2.10;99.90;;;;;;5047628;28;20088;-65
2022/02/13 03:22:37;;;;;;;14.48;7.30;;;2.00;99.90;;;;;;5046601;28;20041;-65
2022/02/13 03:25:03;;;;;;;12.43;6.93;;;1.90;99.90;;;;;;5047833;28;20056;-65
2022/02/13 03:27:29;;;;;;;10.77;6.60;;;1.90;99.90;;;;;;5050750;28;20124;-65
2022/02/13 03:29:55;;;;;;;10.00;6.88;;;1.90;99.90;;;;;;5054890;28;20056;-65
2022/02/13 03:32:21;;;;;;;9.85;6.90;;;2.00;99.90;;;;;;5044406;28;20077;-65
2022/02/13 03:34:47;;;;;;;12.85;6.85;;;1.90;99.90;;;;;;5054092;28;20083;-65
2022/02/13 03:37:14;;;;;;;12.18;6.88;;;1.90;99.90;;;;;;5048836;28;20049;-65
2022/02/13 03:39:40;;;;;;;9.30;5.90;;;1.90;99.90;;;;;;5054413;28;20079;-65
2022/02/13 03:42:06;;;;;;;12.38;6.72;;;2.00;99.90;;;;;;5069776;28;20608;-65
2022/02/13 03:44:33;;;;;;;11.48;6.75;;;1.80;99.90;;;;;;5065994;28;20056;-65
2022/02/13 03:46:59;;;;;;;11.25;6.63;;;1.80;99.90;;;;;;5088233;28;20048;-65
2022/02/13 03:49:25;;;;;;;10.75;7.07;;;1.90;99.90;;;;;;5070692;28;20044;-65
2022/02/13 03:51:51;;;;;;;13.63;6.57;;;1.80;99.90;;;;;;5065032;28;20083;-65
2022/02/13 03:54:17;;;;;;;10.90;6.47;;;1.70;99.90;;;;;;5087409;28;20178;-65
2022/02/13 03:56:42;;;;;;;10.95;7.07;;;1.70;99.90;;;;;;5071059;28;20037;-65
2022/02/13 03:59:08;;;;;;;9.13;5.90;;;1.70;99.90;;;;;;5070947;28;20055;-65
2022/02/13 04:01:34;;;;;;;15.65;6.53;;;1.80;99.90;;;;;;5066854;28;20039;-65
2022/02/13 04:03:59;;;;;;;11.60;7.05;;;1.90;99.90;;;;;;5090225;28;20094;-65
2022/02/13 04:06:25;;;;;;;12.57;7.05;;;1.80;99.90;;;;;;5064281;28;20048;-65
2022/02/13 04:08:51;;;;;;;12.35;6.88;;;1.80;99.90;;;;;;5046529;28;20071;-65
2022/02/13 04:11:16;;;;;;;9.57;6.65;;;1.80;99.90;;;;;;5084893;28;20051;-65
2022/02/13 04:13:42;;;;;;;11.93;7.28;;;1.70;99.90;;;;;;5065689;28;20048;-65
2022/02/13 04:16:08;;;;;;;11.55;7.75;;;1.70;99.90;;;;;;5070686;28;20039;-65
2022/02/13 04:18:34;;;;;;;12.07;6.22;;;1.70;99.90;;;;;;5068060;28;20056;-65
2022/02/13 04:20:59;;;;;;;15.80;7.65;;;1.80;99.90;;;;;;5072017;28;20048;-65
2022/02/13 04:23:29;;;;;;;12.30;8.27;;;1.70;99.90;;;;;;5065247;28;20040;-65
2022/02/13 04:25:55;;;;;;;10.38;6.97;;;1.70;99.90;;;;;;5066810;28;20758;-65
2022/02/13 04:28:20;;;;;;;9.57;6.60;;;1.70;99.90;;;;;;5050363;28;20040;-65
2022/02/13 04:30:46;;;;;;;12.68;6.53;;;1.70;99.90;;;;;;5066541;28;20454;-65
2022/02/13 04:33:12;;;;;;;13.88;7.20;;;1.90;99.90;;;;;;5067577;28;20055;-65
2022/02/13 04:35:38;;;;;;;13.77;7.25;;;1.70;99.90;;;;;;5063647;28;20102;-65
2022/02/13 04:38:03;;;;;;;10.38;6.03;;;1.70;99.90;;;;;;5085062;28;20044;-65
2022/02/13 04:40:29;;;;;;;12.95;7.53;;;1.80;99.90;;;;;;5064895;28;20470;-65
2022/02/13 04:42:55;;;;;;;11.75;7.35;;;1.70;99.90;;;;;;5083855;28;20045;-65
2022/02/13 04:45:20;;;;;;;12.75;7.95;;;1.70;99.90;;;;;;5051728;28;20084;-65
2022/02/13 04:47:48;;;;;;;10.93;6.78;;;1.60;99.90;;;;;;5066503;28;20040;-65
2022/02/13 04:50:20;;;;;;;11.63;6.45;;;1.60;99.90;;;;;;5066903;28;20052;-65
2022/02/13 04:52:47;;;;;;;13.23;7.40;;;1.70;99.90;;;;;;5070926;28;20044;-65
2022/02/13 04:55:13;;;;;;;12.50;6.38;;;1.70;99.90;;;;;;5065425;28;20045;-65
2022/02/13 04:57:39;;;;;;;12.52;7.38;;;1.80;99.90;;;;;;5065843;28;20051;-65
2022/02/13 05:00:06;;;;;;;10.48;6.78;;;1.80;99.90;;;;;;5065634;28;20040;-65
2022/02/13 05:02:32;;;;;;;10.32;7.25;;;1.60;99.90;;;;;;5085608;28;20049;-65
2022/02/13 05:04:57;;;;;;;10.50;7.20;;;1.70;99.90;;;;;;5066494;28;20110;-65
2022/02/13 05:07:23;;;;;;;10.15;6.38;;;1.70;99.90;;;;;;5065770;28;20036;-65
2022/02/13 05:09:49;;;;;;;9.82;7.15;;;1.70;99.90;;;;;;5071744;28;20075;-65
2022/02/13 05:12:15;;;;;;;12.05;7.20;;;1.70;99.90;;;;;;5063829;28;20053;-65
2022/02/13 05:14:41;;;;;;;13.63;6.70;;;1.80;99.90;;;;;;5088851;28;20041;-65
2022/02/13 05:17:08;;;;;;;11.60;7.05;;;1.80;99.90;;;;;;5069274;28;20078;-65
2022/02/13 05:19:34;;;;;;;18.67;7.72;;;1.70;99.90;;;;;;5050928;28;20050;-65
2022/02/13 05:21:59;;;;;;;14.48;6.90;;;1.60;99.90;;;;;;5051185;28;20048;-65
2022/02/13 05:24:25;;;;;;;16.67;7.30;;;1.60;99.90;;;;;;5071458;28;20056;-65
2022/02/13 05:26:51;;;;;;;11.55;6.75;;;1.60;99.90;;;;;;5085298;28;20036;-65
2022/02/13 05:29:17;;;;;;;9.45;6.82;;;1.70;99.90;;;;;;5072285;28;20065;-65
2022/02/13 05:31:44;;;;;;;10.40;6.88;;;1.60;99.90;;;;;;5070951;28;20050;-65
2022/02/13 05:34:14;;;;;;;12.68;7.55;;;1.50;99.90;;;;;;5068336;28;20048;-65
2022/02/13 05:36:40;;;;;;;12.07;6.45;;;1.50;99.90;;;;;;5064359;28;20053;-65
2022/02/13 05:39:06;;;;;;;8.70;6.30;;;1.50;99.90;;;;;;5091527;28;20128;-65
2022/02/13 05:41:31;;;;;;;11.20;7.38;;;1.60;99.90;;;;;;5068567;28;20048;-65
2022/02/13 05:43:57;;;;;;;11.80;7.18;;;1.70;99.90;;;;;;5068950;28;20044;-65
2022/02/13 05:46:25;;;;;;;10.63;7.38;;;1.70;99.90;;;;;;5087055;28;20074;-65
2022/02/13 05:48:51;;;;;;;12.55;7.15;;;1.60;99.90;;;;;;5087332;28;20051;-65
2022/02/13 05:51:17;;;;;;;10.30;6.90;;;1.80;99.90;;;;;;5068211;28;20504;-65
2022/02/13 05:53:43;;;;;;;12.25;7.20;;;1.80;99.90;;;;;;5070991;28;20068;-65
2022/02/13 05:56:09;;;;;;;15.50;5.07;;;1.90;99.90;;;;;;5066171;28;20041;-65
2022/02/13 05:58:39;;;;;;;12.50;5.75;;;1.90;99.90;;;;;;5071198;28;20059;-65
2022/02/13 06:01:04;;;;;;;16.40;7.78;;;2.10;99.90;;;;;;5070862;28;20051;-65
2022/02/13 06:03:30;;;;;;;9.43;5.45;;;2.00;99.90;;;;;;5051343;28;20072;-65
2022/02/13 06:05:56;;;;;;;11.50;6.55;;;2.00;99.90;;;;;;5048317;28;20070;-65
2022/02/13 06:08:23;;;;;;;10.68;6.55;;;1.90;99.90;;;;;;5050889;28;20048;-65
2022/02/13 06:10:48;;;;;;;10.95;6.93;;;1.70;99.90;;;;;;5072100;28;20059;-65
2022/02/13 06:13:14;;;;;;;12.20;6.60;;;1.80;99.90;;;;;;5066654;28;20040;-65
2022/02/13 06:15:40;;;;;;;8.02;5.80;;;1.70;99.90;;;;;;5066665;28;20041;-65
2022/02/13 06:18:05;;;;;;;11.52;7.10;;;1.80;99.90;;;;;;5050662;28;20048;-65
2022/02/13 06:20:31;;;;;;;12.73;7.10;;;1.70;99.90;;;;;;5068105;28;20411;-65
2022/02/13 06:22:57;;;;;;;9.38;6.93;;;1.60;99.90;;;;;;5087035;28;20119;-65
2022/02/13 06:25:22;;;;;;;12.48;7.68;;;1.60;99.90;;;;;;5070575;28;20078;-65
2022/02/13 06:27:48;;;;;;;11.40;6.28;;;1.60;99.90;;;;;;5067677;28;20052;-65
2022/02/13 06:30:14;;;;;;;12.02;7.18;;;1.70;99.90;;;;;;5086282;28;20045;-65
2022/02/13 06:32:40;;;;;;;11.73;7.15;;;1.70;99.90;;;;;;5068136;28;20104;-65
2022/02/13 06:35:06;;;;;;;10.80;6.05;;;1.70;99.90;;;;;;5072237;28;20051;-65
2022/02/13 06:37:32;;;;;;;10.82;6.25;;;1.70;99.90;;;;;;5068307;28;20049;-65
2022/02/13 06:39:58;;;;;;;13.02;7.13;;;1.60;99.90;;;;;;5088432;28;20059;-65
2022/02/13 06:42:24;;;;;;;13.35;7.13;;;1.60;99.90;;;;;;5069573;28;20048;-65
2022/02/13 06:44:50;;;;;;;12.18;6.88;;;1.60;99.90;;;;;;5075170;28;20078;-65
2022/02/13 06:47:17;;;;;;;13.35;7.22;;;1.70;99.90;;;;;;5086464;28;20048;-65
2022/02/13 06:49:42;;;;;;;14.40;7.43;;;1.60;99.90;;;;;;5070551;28;20043;-65
2022/02/13 06:52:08;;;;;;;10.98;6.40;;;1.60;99.90;;;;;;5069696;28;20044;-65
2022/02/13 06:54:34;;;;;;;12.20;7.28;;;1.50;99.90;;;;;;5066983;28;20041;-65
2022/02/13 06:56:59;;;;;;;11.10;6.53;;;1.60;99.90;;;;;;5051310;28;20048;-65
2022/02/13 06:59:25;;;;;;;13.13;7.55;;;1.50;99.90;;;;;;5066435;28;20048;-65
2022/02/13 07:01:51;;;;;;;10.00;5.80;;;1.60;99.90;;;;;;5066950;28;20051;-65
2022/02/13 07:04:16;;;;;;;14.73;6.57;;;1.60;99.90;;;;;;5068555;28;20048;-65
2022/02/13 07:06:42;;;;;;;10.88;7.32;;;1.80;99.90;;;;;;5066524;28;20043;-65
2022/02/13 07:09:08;;;;;;;10.13;6.28;;;1.60;99.90;;;;;;5070954;28;20040;-65
2022/02/13 07:11:34;;;;;;;12.65;7.20;;;1.60;99.90;;;;;;5066750;28;20140;-65
2022/02/13 07:14:00;;;;;;;9.88;6.80;;;1.90;99.90;;;;;;5086644;28;20127;-65
2022/02/13 07:16:26;;;;;;;11.10;6.88;;;1.70;99.90;;;;;;5068841;28;20056;-65
2022/02/13 07:18:52;;;;;;;10.15;6.80;;;1.70;99.90;;;;;;5064019;28;20044;-65
2022/02/13 07:21:17;;;;;;;10.63;6.53;;;1.90;99.90;;;;;;5068445;28;20045;-65
2022/02/13 07:23:43;;;;;;;8.18;6.07;;;2.00;99.90;;;;;;5097049;28;20052;-65
2022/02/13 07:26:10;;;;;;;11.02;6.47;;;2.20;99.90;;;;;;5066059;28;20118;-65
2022/02/13 07:31:20;;;;;;;11.88;7.22;;;2.10;99.90;;;;;;5095459;28;20074;-66
2022/02/13 07:33:46;;;;;;;10.75;6.63;;;2.00;99.90;;;;;;5064559;28;20068;-65
2022/02/13 07:36:12;;;;;;;11.65;6.70;;;2.00;99.90;;;;;;5057943;28;20151;-65
2022/02/13 07:38:37;;;;;;;9.35;6.25;;;2.10;99.90;;;;;;5063912;28;20040;-65
2022/02/13 07:41:03;;;;;;;10.75;6.22;;;2.30;99.90;;;;;;5084487;28;20559;-65
2022/02/13 07:43:29;;;;;;;12.73;6.28;;;2.50;99.90;;;;;;5067438;28;20048;-65
2022/02/13 07:45:55;;;;;;;10.38;6.60;;;2.50;99.90;;;;;;5067232;28;20044;-65
2022/02/13 07:48:20;;;;;;;9.32;6.00;;;2.60;99.90;;;;;;5069886;28;20074;-65
2022/02/13 07:50:46;;;;;;;10.85;6.22;;;2.60;99.90;;;;;;5074121;28;20070;-65
2022/02/13 07:53:12;;;;;;;8.93;6.65;;;2.50;99.90;;;;;;5071786;28;20036;-65
2022/02/13 07:55:38;;;;;;;6.45;4.97;;;2.60;99.90;;;;;;5065122;28;20056;-65
2022/02/13 07:58:04;;;;;;;8.27;6.03;;;2.60;99.90;;;;;;5066536;28;20060;-65
2022/02/13 08:00:29;;;;;;;10.43;5.70;;;2.60;99.90;;;;;;5067514;28;20055;-65
2022/02/13 08:02:55;;;;;;;10.27;6.95;;;2.60;99.90;;;;;;5066043;28;20131;-65
2022/02/13 08:05:21;;;;;;;9.10;6.10;;;2.60;99.90;;;;;;5063344;28;20411;-66
2022/02/13 08:07:49;;;;;;;8.23;4.47;;;2.70;99.90;;;;;;5066455;28;20041;-65
2022/02/13 08:10:15;;;;;;;8.05;5.82;;;2.70;99.90;;;;;;5057741;28;20049;-65
2022/02/13 08:12:41;;;;;;;11.90;6.35;;;2.70;99.90;;;;;;5068147;28;20071;-65
2022/02/13 08:15:07;;;;;;;12.00;6.60;;;2.80;99.90;;;;;;5066355;28;20063;-65
2022/02/13 08:17:33;;;;;;;8.15;4.47;;;2.70;99.90;;;;;;5066407;28;20045;-66
2022/02/13 08:19:59;;;;;;;9.93;6.05;;;2.80;99.90;;;;;;5069177;28;20136;-65
2022/02/13 08:22:25;;;;;;;10.23;6.55;;;2.90;99.90;;;;;;5068889;28;20047;-65
2022/02/13 08:24:51;;;;;;;8.73;6.57;;;2.80;99.90;;;;;;5062628;28;20131;-65
2022/02/13 08:27:16;;;;;;;11.57;6.22;;;2.70;99.90;;;;;;5064077;28;20045;-65
2022/02/13 08:29:43;;;;;;;10.85;6.53;;;2.80;99.90;;;;;;5059083;28;20060;-65
2022/02/13 08:32:09;;;;;;;8.88;6.15;;;2.80;99.90;;;;;;5066775;28;20052;-67
2022/02/13 08:34:35;;;;;;;10.98;6.75;;;2.80;99.90;;;;;;5071622;28;20040;-68
2022/02/13 08:37:00;;;;;;;8.23;6.00;;;2.80;99.90;;;;;;5070204;28;20048;-68
2022/02/13 08:39:26;;;;;;;11.15;6.80;;;2.80;99.90;;;;;;5062141;28;20057;-66
2022/02/13 08:41:52;;;;;;;10.98;6.45;;;2.80;99.90;;;;;;5062959;28;20053;-65
2022/02/13 08:44:18;;;;;;;11.63;6.80;;;2.80;99.90;;;;;;5062962;28;20056;-66
2022/02/13 08:46:43;;;;;;;10.23;6.65;;;2.80;99.90;;;;;;5082935;28;20064;-65
2022/02/13 08:49:09;;;;;;;10.27;6.63;;;2.80;99.90;;;;;;5067503;28;20060;-66
2022/02/13 08:51:37;;;;;;;9.80;6.65;;;2.80;99.90;;;;;;5068058;28;20128;-68
2022/02/13 08:54:03;;;;;;;10.52;6.03;;;2.90;99.90;;;;;;5086855;28;20045;-66
2022/02/13 08:56:29;;;;;;;9.23;6.40;;;2.90;99.90;;;;;;5078656;28;20046;-65
2022/02/13 08:58:55;;;;;;;10.60;6.00;;;3.00;99.90;;;;;;5063356;28;20056;-65
2022/02/13 09:01:22;;;;;;;8.15;5.55;;;3.10;99.90;;;;;;5098651;28;20063;-65
2022/02/13 09:03:48;;;;;;;10.18;6.28;;;3.10;99.90;;;;;;5081024;28;20040;-65
2022/02/13 09:06:13;;;;;;;9.80;6.35;;;3.10;99.90;;;;;;5097420;28;20033;-65
2022/02/13 09:08:39;;;;;;;8.55;6.25;;;3.10;99.90;;;;;;5068709;28;20072;-66
2022/02/13 09:11:05;;;;;;;11.63;6.10;;;3.20;99.90;;;;;;5071679;28;20047;-65
2022/02/13 09:13:30;;;;;;;7.97;6.03;;;3.10;99.90;;;;;;5102697;28;20055;-65
2022/02/13 09:15:56;;;;;;;10.23;7.00;;;3.20;99.90;;;;;;5082147;28;20040;-65
2022/02/13 09:18:22;;;;;;;9.95;6.22;;;3.20;99.90;;;;;;5097728;28;20138;-66
2022/02/13 09:20:47;;;;;;;7.95;6.15;;;3.20;99.90;;;;;;5086104;28;20054;-65
2022/02/13 09:23:17;;;;;;;8.65;6.30;;;3.40;99.90;;;;;;5079704;28;20117;-64
2022/02/13 09:25:43;;;;;;;9.07;6.97;;;3.40;99.90;;;;;;5079676;28;20068;-64
2022/02/13 09:28:10;;;;;;;10.73;6.55;;;3.50;99.90;;;;;;5094203;28;20361;-64
2022/02/13 09:30:36;;;;;;;10.32;7.00;;;3.50;99.90;;;;;;5080615;28;20508;-65
2022/02/13 09:33:02;;;;;;;10.43;6.45;;;3.70;99.90;;;;;;5082340;28;20056;-64
2022/02/13 09:35:28;;;;;;;9.90;6.47;;;3.80;99.90;;;;;;5101554;28;20046;-64
2022/02/13 09:37:54;;;;;;;13.90;7.25;;;3.80;99.90;;;;;;5101087;28;20052;-65
2022/02/13 09:40:20;;;;;;;10.80;6.88;;;3.80;99.90;;;;;;5100861;28;20063;-65
2022/02/13 09:42:47;;;;;;;9.38;6.68;;;3.80;99.90;;;;;;5075266;28;20037;-65
2022/02/13 09:45:13;;;;;;;9.63;6.32;;;3.90;99.90;;;;;;5075772;28;20075;-66
2022/02/13 09:47:39;;;;;;;9.35;6.30;;;3.80;99.90;;;;;;5076565;28;20037;-63
2022/02/13 09:50:06;;;;;;;9.63;6.10;;;3.80;99.90;;;;;;5088388;28;20063;-66
2022/02/13 09:52:32;;;;;;;10.55;5.78;;;4.00;99.90;;;;;;5071524;28;20066;-69
2022/02/13 09:54:58;;;;;;;8.18;5.78;;;4.10;99.90;;;;;;5074180;28;20044;-64
2022/02/13 10:00:09;;;;;;;9.20;6.25;;;4.10;99.90;;;;;;5075715;28;20448;-66
2022/02/13 10:02:38;;;;;;;7.72;5.85;;;4.20;99.90;;;;;;5090342;28;20036;-66
2022/02/13 10:05:06;;;;;;;7.72;4.72;;;4.30;99.90;;;;;;5077593;28;20097;-66
2022/02/13 10:07:34;;;;;;;7.78;5.38;;;4.50;99.90;;;;;;5089525;28;20051;-66
2022/02/13 10:10:03;;;;;;;7.28;4.78;;;4.50;99.90;;;;;;5068243;28;20041;-66
2022/02/13 10:12:42;;;;;;;7.53;5.85;;;4.70;99.90;;;;;;5037787;28;20401;-66
2022/02/13 10:15:25;;;;;;;9.57;5.82;;;4.60;99.90;;;;;;5042378;28;20048;-66
2022/02/13 10:18:08;;;;;;;8.82;6.05;;;4.60;99.90;;;;;;5030658;28;20069;-65
2022/02/13 10:20:37;;;;;;;8.52;5.90;;;4.60;99.90;;;;;;5051488;28;20067;-65
2022/02/13 10:23:10;;;;;;;10.00;5.90;;;4.60;99.90;;;;;;5084867;28;20079;-65
2022/02/13 10:25:37;;;;;;;10.52;5.82;;;4.50;99.90;;;;;;5061132;28;20155;-65
2022/02/13 10:28:11;;;;;;;9.85;6.20;;;4.50;99.90;;;;;;5048079;28;20115;-65
2022/02/13 10:30:42;;;;;;;10.15;6.30;;;4.60;99.90;;;;;;5060997;28;20106;-66
2022/02/13 10:33:20;;;;;;;7.20;5.60;;;4.70;99.90;;;;;;5080744;28;20055;-66
2022/02/13 10:36:07;;;;;;;7.25;5.20;;;4.60;99.90;;;;;;5062198;28;20032;-68
2022/02/13 10:38:41;;;;;;;8.95;6.00;;;4.90;99.90;;;;;;5075171;28;20077;-67
2022/02/13 10:41:36;;;;;;;7.97;6.60;;;4.80;99.90;;;;;;5072741;28;20524;-65
2022/02/13 10:44:06;;;;;;;8.35;5.97;;;5.20;99.90;;;;;;5002319;28;20057;-65
2022/02/13 10:46:34;;;;;;;8.48;5.85;;;5.00;99.90;;;;;;5015230;28;20053;-66
2022/02/13 10:49:01;;;;;;;7.93;5.03;;;4.90;99.90;;;;;;5027186;28;20061;-68
2022/02/13 10:51:27;;;;;;;8.85;5.65;;;5.10;99.90;;;;;;5000954;28;20076;-68
2022/02/13 10:53:55;;;;;;;10.18;5.90;;;5.20;99.90;;;;;;5014434;28;20136;-68
2022/02/13 10:56:21;;;;;;;10.60;6.15;;;5.10;99.90;;;;;;4985304;28;20276;-68
2022/02/13 10:58:47;;;;;;;8.13;6.65;;;5.20;99.90;;;;;;4983895;28;20083;-68
2022/02/13 11:01:18;;;;;;;7.40;6.45;;;5.20;99.90;;;;;;5030702;28;20184;-69
2022/02/13 11:03:48;;;;;;;8.63;6.13;;;5.50;99.90;;;;;;4995184;28;20062;-69
2022/02/13 11:06:15;;;;;;;10.43;7.45;;;5.30;99.90;;;;;;5008291;28;20049;-69
2022/02/13 11:09:00;;;;;;;8.60;6.43;;;5.30;99.90;;;;;;4999641;28;20350;-69
2022/02/13 11:11:26;;;;;;;7.93;5.75;;;5.40;99.90;;;;;;4984944;28;20065;-75
2022/02/13 11:13:55;;;;;;;7.15;5.95;;;5.50;99.90;;;;;;5026746;28;20994;-69
2022/02/13 11:16:34;;;;;;;8.90;6.53;;;5.50;99.90;;;;;;5011504;28;20582;-69
2022/02/13 11:19:12;;;;;;;9.43;6.80;;;5.60;99.90;;;;;;4988783;28;20046;-69
2022/02/13 11:21:39;;;;;;;8.40;6.78;;;5.50;99.90;;;;;;5044415;28;20052;-69
2022/02/13 11:24:05;;;;;;;9.35;6.30;;;5.60;99.90;;;;;;5057124;28;20080;-69
2022/02/13 11:26:43;;;;;;;8.80;6.55;;;5.70;99.90;;;;;;5050782;28;20044;-70
2022/02/13 11:29:14;;;;;;;7.40;6.68;;;5.60;99.90;;;;;;5061004;28;20040;-69
2022/02/13 11:31:40;;;;;;;9.27;7.00;;;5.60;99.90;;;;;;5057420;28;20051;-69
2022/02/13 11:34:27;;;;;;;8.88;5.95;;;5.80;99.90;;;;;;5059640;28;20136;-69
2022/02/13 11:37:08;;;;;;;10.60;5.60;;;6.00;99.90;;;;;;5051502;28;20524;-69
2022/02/13 11:39:35;;;;;;;;;;;6.10;99.90;;;;;;5058957;28;20310;-69
2022/02/13 11:42:20;;;;;;;8.07;5.45;;;6.20;99.90;;;;;;5049425;28;19964;-69
2022/02/13 11:45:01;;;;;;;9.77;6.82;;;6.00;99.90;;;;;;5055405;28;20116;-69
2022/02/13 11:47:33;;;;;;;6.47;5.22;;;6.10;99.90;;;;;;5050344;28;20069;-69
2022/02/13 11:50:06;;;;;;;7.68;5.90;;;6.30;99.90;;;;;;5049226;28;20086;-69
2022/02/13 11:52:34;;;;;;;7.80;5.25;;;6.40;99.90;;;;;;5050728;28;20369;-70
2022/02/13 11:55:26;;;;;;;6.93;5.57;;;6.40;99.90;;;;;;5041628;28;20051;-69
2022/02/13 11:57:54;;;;;;;9.20;5.80;;;6.40;99.90;;;;;;5036609;28;20468;-71
2022/02/13 12:00:37;;;;;;;10.57;6.10;;;6.60;99.90;;;;;;5058443;28;20046;-70
2022/02/13 12:03:22;;;;;;;7.22;5.63;;;6.80;99.90;;;;;;5056641;28;20070;-70
2022/02/13 12:06:11;;;;;;;7.45;6.03;;;6.90;99.90;;;;;;5051490;28;20399;-70
2022/02/13 12:08:36;;;;;;;5.78;4.22;;;7.10;99.90;;;;;;5049163;28;20071;-70
2022/02/13 12:11:06;;;;;;;7.68;5.35;;;7.60;99.90;;;;;;5067963;28;20075;-70
2022/02/13 12:13:36;;;;;;;7.50;4.95;;;7.40;99.90;;;;;;5039892;28;20073;-68
2022/02/13 12:16:03;;;;;;;8.07;5.65;;;7.60;99.90;;;;;;5065312;28;20178;-69
2022/02/13 12:18:29;;;;;;;8.07;6.20;;;7.60;99.90;;;;;;5052115;28;20060;-69
2022/02/13 12:21:03;;;;;;;8.55;5.45;;;7.60;99.90;;;;;;5061618;28;20137;-70
2022/02/13 12:23:30;;;;;;;6.70;5.32;;;7.60;99.90;;;;;;5033762;28;20090;-69
2022/02/13 12:25:56;;;;;;;7.93;5.63;;;7.50;99.90;;;;;;5085601;28;20048;-69
2022/02/13 12:28:31;;;;;;;7.35;5.13;;;7.40;99.90;;;;;;5054845;28;20044;-69
2022/02/13 12:30:57;;;;;;;5.85;5.05;;;7.60;99.90;;;;;;5064314;28;20059;-69
2022/02/13 12:33:27;;;;;;;6.78;4.90;;;7.70;99.90;;;;;;5066884;28;20048;-69
2022/02/13 12:35:57;;;;;;;7.07;5.20;;;8.00;99.90;;;;;;5074588;28;20450;-70
2022/02/13 12:38:30;;;;;;;7.43;4.47;;;8.00;99.90;;;;;;5067161;28;20052;-69
2022/02/13 12:41:00;;;;;;;6.68;4.78;;;8.50;99.90;;;;;;5073789;28;20052;-67
2022/02/13 12:43:26;;;;;;;5.25;4.18;;;8.40;99.90;;;;;;5033190;28;20048;-69
2022/02/13 12:45:57;;;;;;;8.18;4.88;;;8.50;99.90;;;;;;5076470;28;20055;-70
2022/02/13 12:48:28;;;;;;;7.03;4.70;;;8.60;99.90;;;;;;5069109;28;20055;-69
2022/02/13 12:50:57;;;;;;;9.05;4.45;;;8.30;99.90;;;;;;5068823;28;20051;-70
2022/02/13 12:53:26;;;;;;;7.20;4.72;;;8.50;99.90;;;;;;5053712;28;20124;-69
2022/02/13 12:56:00;;;;;;;6.35;5.00;;;8.50;99.90;;;;;;5053129;28;20076;-69